createdAt,value
2023-07-14T00:02:02.219Z,19.80
2023-07-14T00:05:05.482Z,19.80
2023-07-14T00:08:18.659Z,19.83
2023-07-14T00:11:23.128Z,20.00
2023-07-14T00:14:25.783Z,19.90
2023-07-14T00:17:28.199Z,19.88
2023-07-14T00:20:32.003Z,19.82
2023-07-14T00:23:34.314Z,19.78
2023-07-14T00:26:36.713Z,19.68
2023-07-14T00:29:40.388Z,19.74
2023-07-14T00:32:43.773Z,19.78
2023-07-14T00:35:48.776Z,19.81
2023-07-14T00:38:51.426Z,19.88
2023-07-14T00:41:54.844Z,19.95
2023-07-14T00:44:58.316Z,19.96
2023-07-14T00:48:05.401Z,19.83
2023-07-14T00:51:14.635Z,19.67
2023-07-14T00:54:28.990Z,19.58
2023-07-14T00:57:31.735Z,19.69
2023-07-14T01:00:34.420Z,19.67
2023-07-14T01:03:41.332Z,19.55
2023-07-14T01:06:44.297Z,19.65
2023-07-14T01:09:48.159Z,19.66
2023-07-14T01:12:56.738Z,19.73
2023-07-14T01:15:59.077Z,19.81
2023-07-14T01:19:01.998Z,19.65
2023-07-14T01:22:40.464Z,19.74
2023-07-14T01:25:52.197Z,19.58
2023-07-14T01:28:54.816Z,19.55
2023-07-14T01:31:57.264Z,19.58
2023-07-14T01:34:59.609Z,19.43
2023-07-14T01:38:01.959Z,19.33
2023-07-14T01:41:05.969Z,19.27
2023-07-14T01:44:18.969Z,19.28
2023-07-14T01:47:21.524Z,19.17
2023-07-14T01:50:48.902Z,18.88
2023-07-14T01:54:08.126Z,18.57
2023-07-14T01:57:14.078Z,18.54
2023-07-14T02:00:17.296Z,18.52
2023-07-14T02:03:32.125Z,18.50
2023-07-14T02:06:35.514Z,18.44
2023-07-14T02:09:37.840Z,18.40
2023-07-14T02:12:43.828Z,18.35
2023-07-14T02:15:46.602Z,18.39
2023-07-14T02:18:49.832Z,18.44
2023-07-14T02:21:53.305Z,18.49
2023-07-14T02:24:56.434Z,18.13
2023-07-14T02:27:58.711Z,17.97
2023-07-14T02:31:11.806Z,17.92
2023-07-14T02:34:16.439Z,17.85
2023-07-14T02:38:01.759Z,17.80
2023-07-14T02:41:15.187Z,18.00
2023-07-14T02:44:19.073Z,18.04
2023-07-14T02:47:21.872Z,18.16
2023-07-14T02:50:24.152Z,18.25
2023-07-14T02:53:26.532Z,18.31
2023-07-14T02:56:28.831Z,18.53
2023-07-14T02:59:31.277Z,18.48
2023-07-14T03:02:33.611Z,18.53
2023-07-14T03:05:36.023Z,18.33
2023-07-14T03:08:38.313Z,18.29
2023-07-14T03:11:40.634Z,18.38
2023-07-14T03:14:42.968Z,18.27
2023-07-14T03:17:45.305Z,18.20
2023-07-14T03:20:47.632Z,18.22
2023-07-14T03:23:49.940Z,18.15
2023-07-14T03:26:52.173Z,18.10
2023-07-14T03:29:55.349Z,18.05
2023-07-14T03:32:57.771Z,18.06
2023-07-14T03:36:04.668Z,18.19
2023-07-14T03:39:28.064Z,18.11
2023-07-14T03:42:30.417Z,18.13
2023-07-14T03:45:33.802Z,18.26
2023-07-14T03:48:36.419Z,18.32
2023-07-14T03:51:39.067Z,18.59
2023-07-14T03:54:41.339Z,18.92
2023-07-14T03:57:53.407Z,19.21
2023-07-14T04:01:04.682Z,19.43
2023-07-14T04:04:07.973Z,19.61
2023-07-14T04:07:10.711Z,20.22
2023-07-14T04:10:13.390Z,20.35
2023-07-14T04:13:15.727Z,20.51
2023-07-14T04:16:18.031Z,20.44
2023-07-14T04:19:20.353Z,20.51
2023-07-14T04:22:25.822Z,20.83
2023-07-14T04:25:28.465Z,20.95
2023-07-14T04:28:30.891Z,21.32
2023-07-14T04:31:34.218Z,21.87
2023-07-14T04:34:37.527Z,22.24
2023-07-14T04:37:39.814Z,22.77
2023-07-14T04:40:42.965Z,23.39
2023-07-14T04:43:45.228Z,23.51
2023-07-14T04:46:47.782Z,23.98
2023-07-14T04:49:50.154Z,24.49
2023-07-14T04:52:52.473Z,23.86
2023-07-14T04:55:54.799Z,23.85
2023-07-14T04:58:57.332Z,23.77
2023-07-14T05:01:59.872Z,23.85
2023-07-14T05:05:18.706Z,24.01
2023-07-14T05:08:21.590Z,23.97
2023-07-14T05:11:24.375Z,23.67
2023-07-14T05:14:27.907Z,23.13
2023-07-14T05:17:30.257Z,22.79
2023-07-14T05:20:32.574Z,22.67
2023-07-14T05:23:35.080Z,23.39
2023-07-14T05:26:37.614Z,22.33
2023-07-14T05:29:39.963Z,21.99
2023-07-14T05:32:46.462Z,22.03
2023-07-14T05:35:49.648Z,22.66
2023-07-14T05:38:52.118Z,22.36
2023-07-14T05:41:54.427Z,21.88
2023-07-14T05:44:56.707Z,22.22
2023-07-14T05:47:59.063Z,22.49
2023-07-14T05:51:02.050Z,22.44
2023-07-14T05:54:04.387Z,22.31
2023-07-14T05:57:07.069Z,22.44
2023-07-14T06:00:18.061Z,22.94
2023-07-14T06:03:20.662Z,22.81
2023-07-14T06:06:23.273Z,23.28
2023-07-14T06:09:25.601Z,22.75
2023-07-14T06:12:27.894Z,22.83
2023-07-14T06:15:30.621Z,22.94
2023-07-14T06:18:32.940Z,23.67
2023-07-14T06:21:35.275Z,23.52
2023-07-14T06:24:37.649Z,23.65
2023-07-14T06:27:39.978Z,24.23
2023-07-14T06:30:42.297Z,24.78
2023-07-14T06:33:44.619Z,24.21
2023-07-14T06:36:46.874Z,23.98
2023-07-14T06:39:49.134Z,24.13
2023-07-14T06:42:51.514Z,24.51
2023-07-14T06:45:53.813Z,24.85
2023-07-14T06:49:11.245Z,24.08
2023-07-14T06:52:20.365Z,24.93
2023-07-14T06:55:23.107Z,25.17
2023-07-14T06:58:26.630Z,25.73
2023-07-14T07:01:29.311Z,25.62
2023-07-14T07:04:33.952Z,26.26
2023-07-14T07:07:36.234Z,26.05
2023-07-14T07:10:38.846Z,26.32
2023-07-14T07:13:41.163Z,25.69
2023-07-14T07:16:43.484Z,25.18
2023-07-14T07:19:45.941Z,24.69
2023-07-14T07:22:49.003Z,24.94
2023-07-14T07:25:53.981Z,24.81
2023-07-14T07:28:56.294Z,25.49
2023-07-14T07:31:59.023Z,25.35
2023-07-14T07:35:01.902Z,24.75
2023-07-14T07:38:04.299Z,24.70
2023-07-14T07:41:06.723Z,25.27
2023-07-14T07:44:10.216Z,24.79
2023-07-14T07:47:13.902Z,24.86
2023-07-14T07:50:16.337Z,24.69
2023-07-14T07:53:18.622Z,24.79
2023-07-14T07:56:21.576Z,25.14
2023-07-14T07:59:23.985Z,25.71
2023-07-14T08:02:26.438Z,25.82
2023-07-14T08:05:28.735Z,26.36
2023-07-14T08:08:31.458Z,25.92
2023-07-14T08:11:34.561Z,25.52
2023-07-14T08:14:57.569Z,25.87
2023-07-14T08:17:59.919Z,25.58
2023-07-14T08:21:02.767Z,25.11
2023-07-14T08:24:08.916Z,25.27
2023-07-14T08:27:11.191Z,26.02
2023-07-14T08:30:13.611Z,26.97
2023-07-14T08:33:15.973Z,26.52
2023-07-14T08:36:19.080Z,27.08
2023-07-14T08:39:21.922Z,27.61
2023-07-14T08:42:53.238Z,27.72
2023-07-14T08:46:07.573Z,28.15
2023-07-14T08:49:24.203Z,27.70
2023-07-14T08:52:36.940Z,27.42
2023-07-14T08:55:40.299Z,27.83
2023-07-14T08:58:43.244Z,28.24
2023-07-14T09:01:55.107Z,28.57
2023-07-14T09:05:00.978Z,27.72
2023-07-14T09:08:06.172Z,28.04
2023-07-14T09:11:46.136Z,28.10
2023-07-14T09:15:17.333Z,27.85
2023-07-14T09:18:45.468Z,27.27
2023-07-14T09:22:23.819Z,27.47
2023-07-14T09:25:46.943Z,27.71
2023-07-14T09:28:50.531Z,28.53
2023-07-14T09:32:24.563Z,28.29
2023-07-14T09:35:29.521Z,27.52
2023-07-14T09:38:53.652Z,28.21
2023-07-14T09:41:58.091Z,28.82
2023-07-14T09:45:09.968Z,28.64
2023-07-14T09:48:14.446Z,29.31
2023-07-14T09:51:24.388Z,29.43
2023-07-14T09:54:26.646Z,29.14
2023-07-14T09:57:39.490Z,29.17
2023-07-14T10:00:43.572Z,29.55
2023-07-14T10:03:52.877Z,29.56
2023-07-14T10:06:55.427Z,30.02
2023-07-14T10:10:10.039Z,29.61
2023-07-14T10:13:20.637Z,29.70
2023-07-14T10:16:23.521Z,29.86
2023-07-14T10:19:42.621Z,29.73
2023-07-14T10:22:44.889Z,29.88
2023-07-14T10:25:51.075Z,29.94
2023-07-14T10:28:54.716Z,30.03
2023-07-14T10:32:05.574Z,29.84
2023-07-14T10:35:26.774Z,29.67
2023-07-14T10:38:40.932Z,29.36
2023-07-14T10:41:47.189Z,29.80
2023-07-14T10:44:49.993Z,29.59
2023-07-14T10:48:12.366Z,28.79
2023-07-14T10:51:41.997Z,28.74
2023-07-14T10:55:07.912Z,28.75
2023-07-14T10:58:20.524Z,29.10
2023-07-14T11:01:40.226Z,29.42
2023-07-14T11:04:46.977Z,29.44
2023-07-14T11:07:49.479Z,29.90
2023-07-14T11:11:03.923Z,30.42
2023-07-14T11:14:14.970Z,30.68
2023-07-14T11:17:44.715Z,29.93
2023-07-14T11:21:00.030Z,29.70
2023-07-14T11:24:17.466Z,28.78
2023-07-14T11:27:37.644Z,28.77
2023-07-14T11:30:44.178Z,29.32
2023-07-14T11:33:58.707Z,29.42
2023-07-14T11:37:34.907Z,29.26
2023-07-14T11:40:40.338Z,28.69
2023-07-14T11:43:42.995Z,28.42
2023-07-14T11:46:45.957Z,28.49
2023-07-14T11:49:53.036Z,28.77
2023-07-14T11:52:59.376Z,29.19
2023-07-14T11:56:23.175Z,29.41
2023-07-14T11:59:28.469Z,29.31
2023-07-14T12:02:37.559Z,29.07
2023-07-14T12:05:41.547Z,28.76
2023-07-14T12:08:43.893Z,28.62
2023-07-14T12:11:52.679Z,28.57
2023-07-14T12:14:54.995Z,28.36
2023-07-14T12:18:23.042Z,28.41
2023-07-14T12:21:33.873Z,28.26
2023-07-14T12:24:41.917Z,28.39
2023-07-14T12:27:49.470Z,28.23
2023-07-14T12:30:52.943Z,28.06
2023-07-14T12:33:56.566Z,27.92
2023-07-14T12:37:01.935Z,28.23
2023-07-14T12:40:06.852Z,28.81
2023-07-14T12:43:36.391Z,29.28
2023-07-14T12:46:40.092Z,29.34
2023-07-14T12:49:47.816Z,29.53
2023-07-14T12:52:50.639Z,29.09
2023-07-14T12:55:52.904Z,28.91
2023-07-14T12:58:58.597Z,28.75
2023-07-14T13:02:02.717Z,28.57
2023-07-14T13:05:05.532Z,28.90
2023-07-14T13:08:18.153Z,29.54
2023-07-14T13:11:22.996Z,29.98
2023-07-14T13:14:41.504Z,30.16
2023-07-14T13:17:44.235Z,30.13
2023-07-14T13:20:46.598Z,30.27
2023-07-14T13:23:55.313Z,30.09
2023-07-14T13:27:02.825Z,29.76
2023-07-14T13:30:33.053Z,29.60
2023-07-14T13:33:35.403Z,28.99
2023-07-14T13:36:37.709Z,28.67
2023-07-14T13:39:46.707Z,28.52
2023-07-14T13:42:51.172Z,28.61
2023-07-14T13:46:07.607Z,28.69
2023-07-14T13:49:09.928Z,28.36
2023-07-14T13:52:14.197Z,28.32
2023-07-14T13:55:19.418Z,28.08
2023-07-14T13:58:22.076Z,27.89
2023-07-14T14:01:25.686Z,28.04
2023-07-14T14:04:28.474Z,28.10
2023-07-14T14:07:31.592Z,28.23
2023-07-14T14:10:33.912Z,28.01
2023-07-14T14:13:36.707Z,28.01
2023-07-14T14:16:39.097Z,28.19
2023-07-14T14:19:41.400Z,27.93
2023-07-14T14:22:44.033Z,28.13
2023-07-14T14:25:49.278Z,28.16
2023-07-14T14:28:51.919Z,28.21
2023-07-14T14:31:54.377Z,28.79
2023-07-14T14:34:57.785Z,29.11
2023-07-14T14:38:02.516Z,29.25
2023-07-14T14:41:08.447Z,29.28
2023-07-14T14:44:23.163Z,29.41
2023-07-14T14:47:25.496Z,29.25
2023-07-14T14:50:27.893Z,29.39
2023-07-14T14:53:31.846Z,29.41
2023-07-14T14:56:41.853Z,29.22
2023-07-14T14:59:46.629Z,29.46
2023-07-14T15:02:50.353Z,29.18
2023-07-14T15:05:53.472Z,28.99
2023-07-14T15:08:55.863Z,28.95
2023-07-14T15:11:58.771Z,28.78
2023-07-14T15:15:01.147Z,28.57
2023-07-14T15:18:03.925Z,28.62
2023-07-14T15:21:20.313Z,28.56
2023-07-14T15:24:22.776Z,28.47
2023-07-14T15:27:34.304Z,28.37
2023-07-14T15:30:36.793Z,28.25
2023-07-14T15:33:39.438Z,28.36
2023-07-14T15:36:42.669Z,28.14
2023-07-14T15:39:45.260Z,28.12
2023-07-14T15:42:50.958Z,28.10
2023-07-14T15:45:55.695Z,28.07
2023-07-14T15:48:58.051Z,28.08
2023-07-14T15:52:01.453Z,27.99
2023-07-14T15:55:04.002Z,27.99
2023-07-14T15:58:06.444Z,27.93
2023-07-14T16:01:26.322Z,28.07
2023-07-14T16:04:30.356Z,28.00
2023-07-14T16:07:33.026Z,27.81
2023-07-14T16:10:38.876Z,27.77
2023-07-14T16:13:41.301Z,27.81
2023-07-14T16:16:44.922Z,27.73
2023-07-14T16:19:48.874Z,27.65
2023-07-14T16:22:53.461Z,27.79
2023-07-14T16:25:56.435Z,27.67
2023-07-14T16:28:59.013Z,27.63
2023-07-14T16:32:02.104Z,27.38
2023-07-14T16:35:04.669Z,27.29
2023-07-14T16:38:18.834Z,27.33
2023-07-14T16:41:21.740Z,27.20
2023-07-14T16:44:24.528Z,27.34
2023-07-14T16:47:26.889Z,27.25
2023-07-14T16:50:29.293Z,27.18
2023-07-14T16:53:31.740Z,27.27
2023-07-14T16:56:35.465Z,27.31
2023-07-14T16:59:39.203Z,27.14
2023-07-14T17:02:43.038Z,27.25
2023-07-14T17:05:45.461Z,27.25
2023-07-14T17:08:49.051Z,27.24
2023-07-14T17:11:53.001Z,27.18
2023-07-14T17:14:55.319Z,27.23
2023-07-14T17:17:57.938Z,27.29
2023-07-14T17:21:02.530Z,27.31
2023-07-14T17:24:05.187Z,27.49
2023-07-14T17:27:15.688Z,27.30
2023-07-14T17:30:21.505Z,27.23
2023-07-14T17:33:28.034Z,26.97
2023-07-14T17:36:30.714Z,26.91
2023-07-14T17:39:47.021Z,26.89
2023-07-14T17:42:50.405Z,26.68
2023-07-14T17:45:52.826Z,26.61
2023-07-14T17:48:57.513Z,26.32
2023-07-14T17:52:00.055Z,26.19
2023-07-14T17:55:02.430Z,26.22
2023-07-14T17:58:13.426Z,26.28
2023-07-14T18:01:17.018Z,26.06
2023-07-14T18:04:20.862Z,25.95
2023-07-14T18:07:23.680Z,26.02
2023-07-14T18:10:28.658Z,25.72
2023-07-14T18:13:35.284Z,25.36
2023-07-14T18:16:37.723Z,25.08
2023-07-14T18:19:40.341Z,24.87
2023-07-14T18:22:44.165Z,24.70
2023-07-14T18:25:46.541Z,24.49
2023-07-14T18:28:48.873Z,24.38
2023-07-14T18:31:51.237Z,24.24
2023-07-14T18:34:53.583Z,24.06
2023-07-14T18:37:57.395Z,23.86
2023-07-14T18:41:03.553Z,23.84
2023-07-14T18:44:13.522Z,23.71
2023-07-14T18:47:15.883Z,23.57
2023-07-14T18:50:19.204Z,23.43
2023-07-14T18:53:27.079Z,23.29
2023-07-14T18:56:29.345Z,23.28
2023-07-14T18:59:31.661Z,23.05
2023-07-14T19:02:37.568Z,22.99
2023-07-14T19:05:39.977Z,22.79
2023-07-14T19:08:42.363Z,22.76
2023-07-14T19:11:47.674Z,22.70
2023-07-14T19:14:50.081Z,22.59
2023-07-14T19:17:53.133Z,22.42
2023-07-14T19:21:04.401Z,22.32
2023-07-14T19:24:14.820Z,22.23
2023-07-14T19:27:19.169Z,22.17
2023-07-14T19:30:22.995Z,22.08
2023-07-14T19:33:31.876Z,22.00
2023-07-14T19:36:34.236Z,21.96
2023-07-14T19:39:36.585Z,21.94
2023-07-14T19:42:39.012Z,21.94
2023-07-14T19:45:41.684Z,21.96
2023-07-14T19:48:44.284Z,22.02
2023-07-14T19:51:49.717Z,21.97
2023-07-14T19:54:52.127Z,21.96
2023-07-14T19:57:55.811Z,21.95
2023-07-14T20:00:59.164Z,21.89
2023-07-14T20:04:01.612Z,21.87
2023-07-14T20:07:12.573Z,21.94
2023-07-14T20:10:15.118Z,22.06
2023-07-14T20:13:23.336Z,22.04
2023-07-14T20:16:25.804Z,22.05
2023-07-14T20:19:28.169Z,22.07
2023-07-14T20:22:30.820Z,22.06
2023-07-14T20:25:33.385Z,22.03
2023-07-14T20:28:37.582Z,21.97
2023-07-14T20:31:41.797Z,21.92
2023-07-14T20:34:44.212Z,21.89
2023-07-14T20:37:47.817Z,21.88
2023-07-14T20:41:00.849Z,21.74
2023-07-14T20:44:04.497Z,21.67
2023-07-14T20:47:26.281Z,21.64
2023-07-14T20:50:29.326Z,21.73
2023-07-14T20:53:32.527Z,21.73
2023-07-14T20:56:34.859Z,21.70
2023-07-14T20:59:37.157Z,21.73
2023-07-14T21:02:39.548Z,21.80
2023-07-14T21:05:41.992Z,21.83
2023-07-14T21:08:44.454Z,21.76
2023-07-14T21:11:47.260Z,21.70
2023-07-14T21:14:50.953Z,21.76
2023-07-14T21:17:54.371Z,21.77
2023-07-14T21:21:02.420Z,21.85
2023-07-14T21:24:12.949Z,22.10
2023-07-14T21:27:17.502Z,22.20
2023-07-14T21:30:19.879Z,22.25
2023-07-14T21:33:34.173Z,22.12
2023-07-14T21:36:36.557Z,21.98
2023-07-14T21:39:38.920Z,22.01
2023-07-14T21:42:41.626Z,21.77
2023-07-14T21:45:46.104Z,21.65
2023-07-14T21:48:48.859Z,21.68
2023-07-14T21:51:52.311Z,21.66
2023-07-14T21:54:54.670Z,21.57
2023-07-14T21:57:56.951Z,21.57
2023-07-14T22:01:01.246Z,21.55
2023-07-14T22:04:09.110Z,21.42
2023-07-14T22:07:14.732Z,21.28
2023-07-14T22:10:17.894Z,21.14
2023-07-14T22:13:32.167Z,21.17
2023-07-14T22:16:34.559Z,21.13
2023-07-14T22:19:36.836Z,21.07
2023-07-14T22:22:39.173Z,21.02
2023-07-14T22:25:46.242Z,20.94
2023-07-14T22:28:49.444Z,20.85
2023-07-14T22:31:51.806Z,20.95
2023-07-14T22:34:54.097Z,20.94
2023-07-14T22:37:57.521Z,20.86
2023-07-14T22:41:25.027Z,20.84
2023-07-14T22:44:27.665Z,20.75
2023-07-14T22:47:30.016Z,20.72
2023-07-14T22:50:32.345Z,20.66
2023-07-14T22:53:34.688Z,20.66
2023-07-14T22:56:37.026Z,20.67
2023-07-14T22:59:39.277Z,20.62
2023-07-14T23:02:42.334Z,20.60
2023-07-14T23:05:44.659Z,20.61
2023-07-14T23:08:48.105Z,20.57
2023-07-14T23:11:50.408Z,20.57
2023-07-14T23:14:52.658Z,20.54
2023-07-14T23:17:55.018Z,20.58
2023-07-14T23:21:00.287Z,20.57
2023-07-14T23:24:07.509Z,20.48
2023-07-14T23:27:10.333Z,20.38
2023-07-14T23:30:14.141Z,20.34
2023-07-14T23:33:16.976Z,20.44
2023-07-14T23:36:20.555Z,20.32
2023-07-14T23:39:23.128Z,20.21
2023-07-14T23:42:25.455Z,20.18
2023-07-14T23:45:28.674Z,20.16
2023-07-14T23:48:31.362Z,20.12
2023-07-14T23:51:35.076Z,20.09
2023-07-14T23:54:37.413Z,20.16
2023-07-14T23:57:39.884Z,20.26
